Time;durP1;ratioP1;P1;durP2;ratioP2;P2;SDS_P1;SDS_P2;PMS_P1;PMS_P2;Temp;Humidity;BMP_temperature;BMP_pressure;BME280_temperature;BME280_humidity;BME280_pressure;Samples;Min_cycle;Max_cycle;Signal;HPM_P1;HPM_P2
2023/04/06 00:00:44;;;;;;;9.70;8.90;;;6.70;34.50;;;;;;20589;6815;341616;-75
2023/04/06 00:03:09;;;;;;;8.80;8.03;;;6.70;33.80;;;;;;20805;6803;120993;-75
2023/04/06 00:05:35;;;;;;;9.10;8.45;;;6.60;33.70;;;;;;20617;6804;277601;-76
2023/04/06 00:08:01;;;;;;;9.48;8.73;;;7.00;33.40;;;;;;20544;6832;295507;-76
2023/04/06 00:10:27;;;;;;;9.57;8.88;;;7.00;33.40;;;;;;20650;6804;306507;-75
2023/04/06 00:12:52;;;;;;;9.97;9.17;;;7.30;33.60;;;;;;20621;6803;300675;-76
2023/04/06 00:15:19;;;;;;;10.10;9.40;;;7.50;32.80;;;;;;20645;6804;281437;-75
2023/04/06 00:17:44;;;;;;;9.70;9.00;;;7.60;32.20;;;;;;20638;6804;277430;-75
2023/04/06 00:20:10;;;;;;;9.60;8.87;;;7.60;32.00;;;;;;20632;6804;335677;-75
2023/04/06 00:22:36;;;;;;;10.30;9.30;;;7.70;31.90;;;;;;20639;6804;306597;-75
2023/04/06 00:25:01;;;;;;;10.17;9.17;;;7.70;32.00;;;;;;20614;6804;310691;-76
2023/04/06 00:27:27;;;;;;;9.33;8.53;;;7.60;32.00;;;;;;20635;6804;306908;-76
2023/04/06 00:29:52;;;;;;;9.70;9.00;;;7.50;32.00;;;;;;20634;6804;310193;-75
2023/04/06 00:32:18;;;;;;;9.67;8.83;;;7.50;32.20;;;;;;20846;6804;116984;-75
2023/04/06 00:34:43;;;;;;;9.30;8.40;;;7.10;32.60;;;;;;20844;6804;117316;-75
2023/04/06 00:37:10;;;;;;;8.60;7.90;;;6.20;33.90;;;;;;20830;6804;117256;-76
2023/04/06 00:39:35;;;;;;;9.27;8.67;;;6.20;33.90;;;;;;20629;6804;310109;-76
2023/04/06 00:42:02;;;;;;;8.80;7.73;;;6.20;34.50;;;;;;20849;6804;123361;-75
2023/04/06 00:44:27;;;;;;;7.50;6.90;;;6.20;34.80;;;;;;20826;6804;122904;-75
2023/04/06 00:46:54;;;;;;;9.20;8.50;;;5.90;34.90;;;;;;20610;6804;306709;-76
2023/04/06 00:49:20;;;;;;;9.80;9.10;;;6.10;35.10;;;;;;20635;6804;306447;-75
2023/04/06 00:51:45;;;;;;;8.70;8.07;;;6.50;34.70;;;;;;20851;6804;121294;-75
2023/04/06 00:54:11;;;;;;;8.50;7.80;;;6.40;34.50;;;;;;20851;6804;116990;-77
2023/04/06 00:56:37;;;;;;;8.57;7.87;;;6.10;34.80;;;;;;20850;6804;116888;-75
2023/04/06 00:59:02;;;;;;;10.47;9.67;;;5.90;35.10;;;;;;20620;6802;277382;-75
2023/04/06 01:01:28;;;;;;;9.70;9.00;;;6.00;34.90;;;;;;20641;6803;307433;-76
2023/04/06 01:03:54;;;;;;;9.73;8.83;;;6.30;34.30;;;;;;20853;6803;117193;-76
2023/04/06 01:06:19;;;;;;;9.20;8.40;;;6.20;34.60;;;;;;20847;6803;116964;-75
2023/04/06 01:08:45;;;;;;;9.67;8.90;;;5.90;34.60;;;;;;20637;6803;306508;-75
2023/04/06 01:11:11;;;;;;;10.20;9.37;;;6.00;35.50;;;;;;20615;6803;306921;-75
2023/04/06 01:13:38;;;;;;;9.97;9.23;;;6.30;35.60;;;;;;20637;6803;278402;-77
2023/04/06 01:16:03;;;;;;;10.23;9.53;;;6.60;36.20;;;;;;20634;6803;306549;-75
2023/04/06 01:18:29;;;;;;;10.20;9.40;;;6.80;35.00;;;;;;20635;6804;277627;-75
2023/04/06 01:20:56;;;;;;;10.80;9.90;;;6.90;34.90;;;;;;20608;6804;306560;-76
2023/04/06 01:23:22;;;;;;;10.23;9.43;;;7.00;34.60;;;;;;20848;6804;117654;-76
2023/04/06 01:25:47;;;;;;;9.60;8.80;;;6.80;34.80;;;;;;20850;6804;117599;-75
2023/04/06 01:28:13;;;;;;;9.70;9.10;;;6.40;35.10;;;;;;20629;6804;306596;-75
2023/04/06 01:30:38;;;;;;;10.40;9.50;;;6.30;35.00;;;;;;20643;6804;284894;-75
2023/04/06 01:33:04;;;;;;;10.27;9.40;;;6.50;35.00;;;;;;20619;6804;280883;-76
2023/04/06 01:35:29;;;;;;;10.48;9.68;;;6.70;34.90;;;;;;20627;6804;310108;-75
2023/04/06 01:37:55;;;;;;;12.63;11.52;;;6.80;34.20;;;;;;20632;6804;308151;-76
2023/04/06 01:40:21;;;;;;;14.90;13.57;;;6.60;34.20;;;;;;20848;6804;121543;-75
2023/04/06 01:42:47;;;;;;;10.73;9.80;;;6.60;34.20;;;;;;20848;6804;117341;-75
2023/04/06 01:45:12;;;;;;;9.37;8.43;;;6.20;34.90;;;;;;20850;6804;117246;-76
2023/04/06 01:47:38;;;;;;;10.52;9.60;;;5.90;35.20;;;;;;20631;6804;336308;-76
2023/04/06 01:50:06;;;;;;;9.83;9.13;;;5.90;35.00;;;;;;20639;6804;306018;-76
2023/04/06 01:52:29;;;;;;;10.20;9.20;;;6.20;34.50;;;;;;20845;6804;116923;-76
2023/04/06 01:54:55;;;;;;;10.63;9.82;;;6.10;34.40;;;;;;20623;6804;336433;-76
2023/04/06 01:57:20;;;;;;;9.47;8.87;;;6.10;35.30;;;;;;20637;6804;306083;-75
2023/04/06 01:59:46;;;;;;;9.38;8.65;;;6.40;35.30;;;;;;20855;6804;116883;-75
2023/04/06 02:02:12;;;;;;;9.70;9.00;;;6.20;35.10;;;;;;20614;6804;306933;-75
2023/04/06 02:04:37;;;;;;;9.63;8.82;;;6.20;35.50;;;;;;20843;6804;117029;-75
2023/04/06 02:07:03;;;;;;;10.57;9.60;;;6.10;35.60;;;;;;20618;6804;306331;-75
2023/04/06 02:09:28;;;;;;;9.77;9.07;;;6.10;35.50;;;;;;20636;6802;312108;-75
2023/04/06 02:11:55;;;;;;;10.18;9.27;;;6.30;34.70;;;;;;20642;6803;279822;-75
2023/04/06 02:14:20;;;;;;;9.70;8.95;;;6.20;34.30;;;;;;20844;6803;117086;-76
2023/04/06 02:16:46;;;;;;;9.13;8.43;;;6.20;34.30;;;;;;20847;6803;117144;-75
2023/04/06 02:19:11;;;;;;;10.07;9.32;;;5.80;34.80;;;;;;20619;6803;277145;-75
2023/04/06 02:21:37;;;;;;;9.07;8.40;;;5.70;35.10;;;;;;20849;6803;117059;-75
2023/04/06 02:24:06;;;;;;;8.37;7.67;;;5.60;35.20;;;;;;20847;6803;117396;-78
2023/04/06 02:26:32;;;;;;;9.73;9.03;;;5.50;36.30;;;;;;20636;6803;280031;-75
2023/04/06 02:28:58;;;;;;;8.40;7.80;;;5.40;36.30;;;;;;20830;6803;117424;-76
2023/04/06 02:31:24;;;;;;;9.80;8.93;;;5.20;36.40;;;;;;20847;6804;117128;-75
2023/04/06 02:33:50;;;;;;;9.93;9.13;;;5.20;36.40;;;;;;20639;6804;276622;-75
2023/04/06 02:36:16;;;;;;;8.70;7.90;;;5.30;36.70;;;;;;20852;6804;116869;-76
2023/04/06 02:38:41;;;;;;;8.77;7.97;;;5.30;36.70;;;;;;20849;6804;122373;-75
2023/04/06 02:41:07;;;;;;;9.50;8.87;;;5.10;37.00;;;;;;20623;6804;277343;-77
2023/04/06 02:43:33;;;;;;;9.00;8.00;;;5.20;37.10;;;;;;20847;6804;117104;-75
2023/04/06 02:45:59;;;;;;;7.63;7.03;;;5.20;37.10;;;;;;20849;6804;116991;-75
2023/04/06 02:48:25;;;;;;;8.27;7.57;;;5.00;37.30;;;;;;20850;6804;117177;-75
2023/04/06 02:50:50;;;;;;;9.57;8.77;;;4.80;37.40;;;;;;20617;6804;339154;-76
2023/04/06 02:53:16;;;;;;;8.17;7.67;;;5.00;37.30;;;;;;20853;6804;117411;-76
2023/04/06 02:55:41;;;;;;;9.90;9.00;;;4.90;37.20;;;;;;20642;6804;277111;-75
2023/04/06 02:58:07;;;;;;;9.47;8.67;;;5.00;37.10;;;;;;20639;6804;310933;-75
2023/04/06 03:00:33;;;;;;;9.57;8.87;;;5.60;36.80;;;;;;20637;6804;277076;-75
2023/04/06 03:02:59;;;;;;;8.70;8.00;;;5.50;36.70;;;;;;20825;6804;122814;-76
2023/04/06 03:05:24;;;;;;;8.03;7.33;;;5.40;36.70;;;;;;20852;6804;117148;-75
2023/04/06 03:07:50;;;;;;;9.30;8.50;;;5.00;37.10;;;;;;20635;6804;316416;-75
2023/04/06 03:10:15;;;;;;;9.77;9.07;;;5.10;37.80;;;;;;20636;6804;311445;-75
2023/04/06 03:12:41;;;;;;;8.77;8.00;;;5.30;37.20;;;;;;20846;6804;116902;-76
2023/04/06 03:15:08;;;;;;;7.50;7.00;;;5.20;37.20;;;;;;20829;6804;117476;-74
2023/04/06 03:17:33;;;;;;;7.80;7.13;;;4.90;37.70;;;;;;20849;6804;118048;-74
2023/04/06 03:19:59;;;;;;;7.87;7.17;;;4.60;38.10;;;;;;20848;6804;117010;-74
2023/04/06 03:22:25;;;;;;;7.80;7.20;;;4.50;38.50;;;;;;20853;6802;122621;-74
2023/04/06 03:24:50;;;;;;;9.90;9.15;;;4.30;38.80;;;;;;20615;6803;306036;-74
2023/04/06 03:27:16;;;;;;;8.87;8.07;;;4.50;38.30;;;;;;20851;6803;117000;-73
2023/04/06 03:29:43;;;;;;;9.30;8.60;;;4.60;39.20;;;;;;20642;6803;280834;-73
2023/04/06 03:32:10;;;;;;;9.27;8.67;;;4.60;39.20;;;;;;20634;6803;277104;-73
2023/04/06 03:34:34;;;;;;;9.37;8.60;;;4.90;38.70;;;;;;20629;6803;306485;-73
2023/04/06 03:37:00;;;;;;;9.02;8.32;;;4.90;38.40;;;;;;20824;6803;117494;-73
2023/04/06 03:39:27;;;;;;;10.80;10.00;;;4.90;38.40;;;;;;20642;6803;322460;-73
2023/04/06 03:41:53;;;;;;;8.73;8.03;;;4.90;38.60;;;;;;20854;6804;117591;-72
2023/04/06 03:44:18;;;;;;;8.70;8.00;;;4.70;38.60;;;;;;20854;6804;116890;-75
2023/04/06 03:46:44;;;;;;;9.60;8.63;;;4.40;39.00;;;;;;20875;6804;117450;-75
2023/04/06 03:49:11;;;;;;;10.30;9.50;;;4.20;39.40;;;;;;20643;6804;278410;-76
2023/04/06 03:51:36;;;;;;;9.57;8.95;;;4.30;39.80;;;;;;20639;6804;277038;-77
2023/04/06 03:54:03;;;;;;;9.35;8.55;;;4.60;39.50;;;;;;20850;6804;116853;-75
2023/04/06 03:56:28;;;;;;;10.37;9.47;;;4.50;39.30;;;;;;20635;6804;277444;-75
2023/04/06 03:58:55;;;;;;;10.03;9.07;;;4.50;39.50;;;;;;20777;6804;117134;-76
2023/04/06 04:01:20;;;;;;;8.43;7.73;;;4.50;39.50;;;;;;20817;6804;117695;-75
2023/04/06 04:03:46;;;;;;;10.00;9.30;;;4.30;39.80;;;;;;20605;6804;281414;-77
2023/04/06 04:06:12;;;;;;;11.18;10.38;;;4.30;39.80;;;;;;20619;6804;281603;-74
2023/04/06 04:08:38;;;;;;;10.93;10.07;;;4.60;39.60;;;;;;20513;6829;307645;-74
2023/04/06 04:11:03;;;;;;;9.25;8.50;;;4.90;39.30;;;;;;20729;6817;117936;-74
2023/04/06 04:13:29;;;;;;;9.07;8.30;;;4.70;39.10;;;;;;20829;6804;119800;-74
2023/04/06 04:15:54;;;;;;;10.32;9.63;;;4.40;39.50;;;;;;20500;6832;305045;-74
2023/04/06 04:18:20;;;;;;;9.30;8.60;;;4.40;40.00;;;;;;20810;6804;117560;-74
2023/04/06 04:20:45;;;;;;;9.17;8.47;;;4.40;39.90;;;;;;20845;6804;116970;-75
2023/04/06 04:23:12;;;;;;;10.98;10.20;;;4.10;40.00;;;;;;20615;6803;306405;-74
2023/04/06 04:25:39;;;;;;;10.17;9.37;;;4.20;40.00;;;;;;20803;6817;117502;-76
2023/04/06 04:28:04;;;;;;;10.17;9.33;;;4.20;40.00;;;;;;20843;6804;117509;-77
2023/04/06 04:30:31;;;;;;;11.70;10.80;;;4.10;40.20;;;;;;20631;6804;307357;-75
2023/04/06 04:32:56;;;;;;;11.32;10.30;;;4.20;39.90;;;;;;20577;6815;336149;-75
2023/04/06 04:35:22;;;;;;;10.30;9.60;;;4.50;39.60;;;;;;20649;6803;307355;-75
2023/04/06 04:37:47;;;;;;;9.70;9.00;;;4.70;39.00;;;;;;20850;6802;116983;-74
2023/04/06 04:40:13;;;;;;;9.90;9.10;;;4.60;39.50;;;;;;20641;6803;276489;-75
2023/04/06 04:42:39;;;;;;;9.13;8.50;;;4.60;39.70;;;;;;20812;6803;120009;-75
2023/04/06 04:45:05;;;;;;;8.57;7.77;;;4.40;39.70;;;;;;20815;6803;118636;-75
2023/04/06 04:47:30;;;;;;;10.67;9.87;;;4.10;39.90;;;;;;20592;6803;306420;-75
2023/04/06 04:49:56;;;;;;;11.07;10.20;;;4.20;40.30;;;;;;20584;6803;313344;-77
2023/04/06 04:52:22;;;;;;;10.18;9.27;;;4.30;40.00;;;;;;20798;6804;121191;-74
2023/04/06 04:54:48;;;;;;;8.67;8.03;;;4.30;39.90;;;;;;20800;6804;117015;-76
2023/04/06 04:57:16;;;;;;;10.53;9.57;;;4.00;40.30;;;;;;20395;6804;281640;-74
2023/04/06 04:59:42;;;;;;;10.95;10.15;;;4.00;41.10;;;;;;20626;6804;339975;-76
2023/04/06 05:02:07;;;;;;;12.57;8.30;;;4.30;41.00;;;;;;20802;6804;117316;-75
2023/04/06 05:04:33;;;;;;;10.98;10.15;;;4.20;40.80;;;;;;20626;6804;336366;-76
2023/04/06 05:07:05;;;;;;;11.20;10.40;;;4.20;41.10;;;;;;20602;6804;341711;-74
2023/04/06 05:09:31;;;;;;;11.73;10.77;;;4.40;41.00;;;;;;20619;6804;281167;-73
2023/04/06 05:11:57;;;;;;;10.00;8.93;;;4.40;40.70;;;;;;20841;6804;117354;-74
2023/04/06 05:14:23;;;;;;;11.37;10.53;;;4.40;40.70;;;;;;20624;6804;307096;-73
2023/04/06 05:16:49;;;;;;;11.17;10.30;;;4.60;41.10;;;;;;20639;6804;277121;-75
2023/04/06 05:19:16;;;;;;;12.07;11.07;;;4.50;41.00;;;;;;20460;6804;320626;-74
2023/04/06 05:21:42;;;;;;;12.03;11.13;;;4.70;40.80;;;;;;20635;6804;327610;-73
2023/04/06 05:24:08;;;;;;;9.97;9.07;;;4.70;40.50;;;;;;20843;6804;117209;-73
2023/04/06 05:26:34;;;;;;;12.13;11.10;;;4.60;41.00;;;;;;20633;6804;294404;-72
2023/04/06 05:29:01;;;;;;;11.57;10.70;;;4.60;40.90;;;;;;20604;6804;310972;-73
2023/04/06 05:31:26;;;;;;;11.40;10.57;;;4.70;41.00;;;;;;20638;6804;278236;-73
2023/04/06 05:33:52;;;;;;;12.05;11.15;;;4.90;40.60;;;;;;20630;6804;325580;-73
2023/04/06 05:36:17;;;;;;;11.68;10.77;;;5.00;40.40;;;;;;20624;6804;306581;-72
2023/04/06 05:38:43;;;;;;;10.13;9.33;;;5.10;40.20;;;;;;20839;6804;117328;-73
2023/04/06 05:41:09;;;;;;;9.75;9.00;;;4.90;40.30;;;;;;20827;6804;117288;-72
2023/04/06 05:43:34;;;;;;;9.40;8.60;;;4.50;40.80;;;;;;20845;6802;117230;-72
2023/04/06 05:46:00;;;;;;;10.43;9.38;;;4.20;41.40;;;;;;20847;6803;116822;-72
2023/04/06 05:48:25;;;;;;;9.57;8.80;;;4.00;41.80;;;;;;20832;6803;116953;-72
2023/04/06 05:50:53;;;;;;;11.32;10.43;;;4.10;42.60;;;;;;20620;6803;336288;-73
2023/04/06 05:53:20;;;;;;;10.03;9.33;;;4.10;42.60;;;;;;20846;6803;123576;-73
2023/04/06 05:55:44;;;;;;;10.13;9.33;;;4.20;42.40;;;;;;20846;6803;122959;-73
2023/04/06 05:58:10;;;;;;;9.83;8.93;;;4.10;42.50;;;;;;20860;6803;120526;-72
2023/04/06 06:00:35;;;;;;;11.97;10.97;;;3.90;42.50;;;;;;20625;6803;310200;-72
2023/04/06 06:03:04;;;;;;;11.20;10.40;;;4.20;42.90;;;;;;20615;6803;340556;-73
2023/04/06 06:05:26;;;;;;;10.30;9.43;;;4.60;42.20;;;;;;20836;6804;117461;-73
2023/04/06 06:07:52;;;;;;;9.02;8.38;;;4.60;41.80;;;;;;20851;6804;117147;-74
2023/04/06 06:10:17;;;;;;;11.48;10.55;;;4.50;42.00;;;;;;20632;6804;310508;-73
2023/04/06 06:12:44;;;;;;;11.50;10.60;;;5.00;41.90;;;;;;20630;6804;336099;-73
2023/04/06 06:15:10;;;;;;;10.33;9.53;;;5.00;41.90;;;;;;20823;6804;123240;-73
2023/04/06 06:17:37;;;;;;;11.57;10.70;;;5.60;41.60;;;;;;20633;6804;281910;-72
2023/04/06 06:20:02;;;;;;;12.17;11.07;;;5.50;41.50;;;;;;20547;6829;312039;-73
2023/04/06 06:22:27;;;;;;;11.00;10.20;;;6.10;40.70;;;;;;20518;6829;280856;-74
2023/04/06 06:24:54;;;;;;;11.48;10.48;;;6.80;39.50;;;;;;20571;6817;277668;-72
2023/04/06 06:27:19;;;;;;;11.50;10.55;;;6.80;39.20;;;;;;20542;6832;307864;-73
2023/04/06 06:29:45;;;;;;;9.82;9.23;;;7.10;38.70;;;;;;20759;6832;118008;-73
2023/04/06 06:32:10;;;;;;;11.70;10.83;;;7.00;38.80;;;;;;20503;6828;338951;-72
2023/04/06 06:34:36;;;;;;;12.52;11.63;;;7.10;38.30;;;;;;20550;6814;307058;-74
2023/04/06 06:37:02;;;;;;;11.53;10.63;;;7.30;37.80;;;;;;20772;6817;121985;-72
2023/04/06 06:39:27;;;;;;;11.95;11.15;;;7.30;38.00;;;;;;20614;6804;343676;-73
2023/04/06 06:41:54;;;;;;;11.07;9.90;;;7.30;37.90;;;;;;20729;6829;117889;-72
2023/04/06 06:44:19;;;;;;;9.97;9.17;;;7.00;38.50;;;;;;20737;6829;117319;-73
2023/04/06 06:46:45;;;;;;;11.23;10.43;;;7.00;38.40;;;;;;20544;6833;308109;-74
2023/04/06 06:49:14;;;;;;;9.65;8.95;;;7.20;38.50;;;;;;20776;6814;117806;-73
2023/04/06 06:51:36;;;;;;;9.83;9.07;;;7.20;38.40;;;;;;20782;6817;119454;-72
2023/04/06 06:54:01;;;;;;;11.25;10.30;;;7.10;38.70;;;;;;20638;6804;281703;-74
2023/04/06 06:56:28;;;;;;;10.43;9.47;;;7.30;38.50;;;;;;20848;6802;117345;-73
2023/04/06 06:58:54;;;;;;;11.25;10.25;;;7.40;38.50;;;;;;20535;6831;307570;-71
2023/04/06 07:01:20;;;;;;;10.40;9.60;;;7.70;38.50;;;;;;20855;6803;119524;-72
2023/04/06 07:03:45;;;;;;;10.68;9.88;;;7.80;38.30;;;;;;20636;6803;309943;-73
2023/04/06 07:06:10;;;;;;;9.80;9.00;;;8.00;37.30;;;;;;20851;6803;117003;-72
2023/04/06 07:08:37;;;;;;;9.85;8.90;;;8.00;37.80;;;;;;20813;6814;116939;-72
2023/04/06 07:11:02;;;;;;;10.27;9.27;;;8.00;37.80;;;;;;20795;6817;119488;-73
2023/04/06 07:13:30;;;;;;;9.03;8.33;;;8.00;38.30;;;;;;20847;6803;118283;-72
2023/04/06 07:15:56;;;;;;;9.83;9.07;;;8.00;38.30;;;;;;20851;6803;119840;-72
2023/04/06 07:18:21;;;;;;;10.10;9.15;;;8.00;38.30;;;;;;20802;6814;117774;-74
2023/04/06 07:20:47;;;;;;;9.53;8.83;;;8.10;38.20;;;;;;20804;6817;117605;-74
2023/04/06 07:23:15;;;;;;;9.70;8.80;;;8.20;38.20;;;;;;20826;6804;120681;-72
2023/04/06 07:25:40;;;;;;;10.20;9.10;;;8.20;38.20;;;;;;20851;6804;122798;-71
2023/04/06 07:28:07;;;;;;;9.17;8.50;;;8.50;38.20;;;;;;20851;6804;117017;-76
2023/04/06 07:30:32;;;;;;;10.77;9.87;;;8.50;38.20;;;;;;20549;6832;308950;-70
2023/04/06 07:33:02;;;;;;;10.93;10.20;;;8.90;36.90;;;;;;20630;6804;285445;-73
2023/04/06 07:35:27;;;;;;;9.97;9.17;;;9.50;36.30;;;;;;20816;6817;117266;-73
2023/04/06 07:37:56;;;;;;;10.50;9.63;;;9.70;36.30;;;;;;20635;6804;306819;-74
2023/04/06 07:40:21;;;;;;;10.43;9.70;;;10.00;34.00;;;;;;20642;6804;306229;-73
2023/04/06 07:42:48;;;;;;;9.57;8.97;;;10.60;32.90;;;;;;20846;6803;117176;-78
2023/04/06 07:45:15;;;;;;;9.57;8.87;;;10.50;32.70;;;;;;20705;6803;117578;-74
2023/04/06 07:47:40;;;;;;;10.37;9.57;;;10.50;33.40;;;;;;20624;6803;307823;-75
2023/04/06 07:50:07;;;;;;;9.40;8.70;;;10.90;33.30;;;;;;20846;6804;123008;-74
2023/04/06 07:52:32;;;;;;;9.27;8.47;;;10.80;33.20;;;;;;20803;6804;117364;-75
2023/04/06 07:54:58;;;;;;;9.75;9.05;;;10.90;33.50;;;;;;20813;6803;120185;-78
2023/04/06 07:57:25;;;;;;;9.83;8.90;;;10.90;33.60;;;;;;20846;6804;123557;-77
2023/04/06 07:59:50;;;;;;;10.02;9.32;;;10.90;33.80;;;;;;20628;6804;336318;-77
2023/04/06 08:02:16;;;;;;;9.30;8.70;;;11.20;32.30;;;;;;20850;6804;117597;-76
2023/04/06 08:04:42;;;;;;;9.10;8.30;;;11.40;32.50;;;;;;20848;6804;117933;-71
2023/04/06 08:07:07;;;;;;;9.33;8.50;;;11.40;32.70;;;;;;20829;6802;116968;-78
2023/04/06 08:09:33;;;;;;;8.33;7.83;;;11.50;33.10;;;;;;20857;6803;117517;-76
2023/04/06 08:11:59;;;;;;;9.67;8.97;;;11.40;33.00;;;;;;20644;6803;310176;-75
2023/04/06 08:14:25;;;;;;;10.30;9.65;;;11.80;31.70;;;;;;20635;6803;310431;-75
2023/04/06 08:16:50;;;;;;;9.90;9.10;;;12.20;30.60;;;;;;20625;6803;277921;-75
2023/04/06 08:19:17;;;;;;;9.37;8.67;;;12.70;30.00;;;;;;20636;6803;306597;-74
2023/04/06 08:21:42;;;;;;;9.87;9.13;;;13.10;29.70;;;;;;20847;6803;119744;-74
2023/04/06 08:24:07;;;;;;;10.50;9.70;;;13.20;30.00;;;;;;20640;6803;306114;-75
2023/04/06 08:26:32;;;;;;;10.80;9.95;;;13.30;27.40;;;;;;20634;6803;277034;-74
2023/04/06 08:28:58;;;;;;;9.30;8.70;;;13.60;25.80;;;;;;20828;6804;127535;-76
2023/04/06 08:31:24;;;;;;;9.10;8.50;;;13.60;26.60;;;;;;20850;6804;117247;-74
2023/04/06 08:33:49;;;;;;;9.97;9.27;;;13.50;27.40;;;;;;20636;6804;277838;-75
2023/04/06 08:36:16;;;;;;;9.50;8.90;;;13.60;26.60;;;;;;20656;6804;285926;-74
2023/04/06 08:38:40;;;;;;;8.97;8.17;;;13.90;27.10;;;;;;20858;6804;117037;-73
2023/04/06 08:41:06;;;;;;;9.70;9.10;;;13.90;27.60;;;;;;20622;6804;277475;-74
2023/04/06 08:43:32;;;;;;;9.00;8.40;;;14.10;28.10;;;;;;20859;6804;123616;-74
2023/04/06 08:46:01;;;;;;;9.60;8.73;;;14.20;28.20;;;;;;20842;6804;117213;-77
2023/04/06 08:48:27;;;;;;;12.00;8.00;;;14.00;28.70;;;;;;20850;6804;117180;-74
2023/04/06 08:50:53;;;;;;;9.27;8.37;;;14.00;28.60;;;;;;20825;6804;118252;-74
2023/04/06 08:53:18;;;;;;;9.17;8.37;;;13.90;28.80;;;;;;20838;6804;117845;-74
2023/04/06 08:55:44;;;;;;;8.20;7.62;;;14.00;28.90;;;;;;20849;6804;117925;-75
2023/04/06 08:58:11;;;;;;;9.68;8.98;;;14.00;28.80;;;;;;20637;6804;288713;-75
2023/04/06 09:00:37;;;;;;;8.37;7.77;;;14.60;27.60;;;;;;20843;6804;118185;-76
2023/04/06 09:03:03;;;;;;;9.43;8.50;;;14.60;27.60;;;;;;20825;6804;130332;-77
2023/04/06 09:05:28;;;;;;;8.83;8.20;;;14.60;28.00;;;;;;20846;6804;117702;-75
2023/04/06 09:07:54;;;;;;;9.68;8.98;;;14.60;28.00;;;;;;20644;6804;307245;-77
2023/04/06 09:10:20;;;;;;;9.00;8.30;;;14.90;26.50;;;;;;20847;6804;117049;-74
2023/04/06 09:12:45;;;;;;;9.43;8.68;;;15.10;26.90;;;;;;20849;6804;117013;-74
2023/04/06 09:15:21;;;;;;;10.43;9.63;;;15.10;27.20;;;;;;20623;6804;277621;-74
2023/04/06 09:17:46;;;;;;;9.30;8.70;;;15.30;25.70;;;;;;20630;6804;307702;-75
2023/04/06 09:20:12;;;;;;;9.60;8.73;;;15.70;25.30;;;;;;20848;6802;117545;-75
2023/04/06 09:22:38;;;;;;;9.05;8.32;;;15.80;26.40;;;;;;20854;6803;118175;-76
2023/04/06 09:25:04;;;;;;;9.23;8.60;;;15.70;26.10;;;;;;20611;6803;336663;-75
2023/04/06 09:27:30;;;;;;;10.35;9.52;;;16.20;23.30;;;;;;20637;6803;311076;-76
2023/04/06 09:30:13;;;;;;;9.82;9.13;;;16.20;23.30;;;;;;20624;6803;310468;-75
2023/04/06 09:32:49;;;;;;;10.38;9.60;;;16.80;22.30;;;;;;20622;6803;336403;-75
2023/04/06 09:35:15;;;;;;;10.60;9.88;;;16.80;22.30;;;;;;20638;6803;321301;-72
2023/04/06 09:37:40;;;;;;;9.37;8.57;;;17.10;22.10;;;;;;20850;6803;117142;-73
2023/04/06 09:40:05;;;;;;;11.18;10.27;;;17.00;22.70;;;;;;20619;6803;307380;-74
2023/04/06 09:42:34;;;;;;;10.40;9.70;;;17.10;22.10;;;;;;20845;6804;117377;-82
2023/04/06 09:45:01;;;;;;;11.10;10.18;;;17.10;23.00;;;;;;20625;6804;277425;-79
2023/04/06 09:47:27;;;;;;;10.93;10.02;;;17.20;21.30;;;;;;20645;6804;287598;-75
2023/04/06 09:49:56;;;;;;;10.23;9.37;;;17.40;21.20;;;;;;20641;6804;308578;-76
2023/04/06 09:52:21;;;;;;;10.23;9.43;;;17.50;20.80;;;;;;20618;6804;279403;-77
2023/04/06 09:54:48;;;;;;;10.10;9.30;;;17.60;21.10;;;;;;20854;6804;117530;-75
2023/04/06 09:57:14;;;;;;;9.70;8.97;;;17.50;21.80;;;;;;20657;6804;306740;-77
2023/04/06 10:00:23;;;;;;;;;;;;;;;;;;;;;
2023/04/06 10:02:28;;;;;;;8.07;7.47;;;17.60;20.60;;;;;;20719;6804;117163;-82
2023/04/06 10:04:58;;;;;;;7.47;6.87;;;17.40;21.20;;;;;;20796;6804;117708;-81
2023/04/06 10:07:25;;;;;;;5.63;5.33;;;17.10;22.10;;;;;;20505;6804;117648;-80
2023/04/06 10:09:50;;;;;;;4.90;4.50;;;17.10;22.10;;;;;;20620;6804;305336;-79
2023/04/06 10:12:18;;;;;;;5.23;4.90;;;17.20;20.30;;;;;;20846;6804;117792;-78
2023/04/06 10:14:43;;;;;;;6.05;5.65;;;17.30;20.70;;;;;;20639;6804;306417;-74
2023/04/06 10:17:11;;;;;;;6.75;6.35;;;17.40;20.30;;;;;;20835;6804;118891;-76
2023/04/06 10:19:54;;;;;;;6.90;6.40;;;17.40;20.80;;;;;;20855;6804;117892;-76
2023/04/06 10:22:26;;;;;;;7.57;7.07;;;17.40;21.50;;;;;;19734;7169;122171;-75
2023/04/06 10:24:52;;;;;;;9.27;8.60;;;17.20;21.90;;;;;;20224;6804;306970;-77
2023/04/06 10:27:18;;;;;;;7.33;6.87;;;17.40;21.20;;;;;;20836;6804;117408;-75
2023/04/06 10:29:48;;;;;;;8.15;7.65;;;17.40;21.50;;;;;;20584;6804;277399;-75
2023/04/06 10:32:12;;;;;;;7.10;6.60;;;17.50;20.60;;;;;;20839;6803;116955;-73
2023/04/06 10:34:38;;;;;;;7.83;7.33;;;17.50;21.40;;;;;;20841;6803;117489;-73
2023/04/06 10:37:14;;;;;;;8.73;8.17;;;17.40;21.90;;;;;;20615;6803;282233;-77
2023/04/06 10:39:47;;;;;;;8.50;7.90;;;17.40;21.20;;;;;;20628;6803;311587;-75
2023/04/06 10:42:12;;;;;;;8.73;8.13;;;17.60;20.60;;;;;;20634;6803;307673;-72
2023/04/06 10:44:39;;;;;;;8.02;7.53;;;17.80;21.20;;;;;;20650;6803;336405;-76
2023/04/06 10:47:05;;;;;;;7.27;6.77;;;18.00;21.10;;;;;;20835;6803;117408;-75
2023/04/06 10:49:30;;;;;;;7.03;6.43;;;17.90;21.10;;;;;;20809;6803;121246;-74
2023/04/06 10:51:55;;;;;;;7.57;6.87;;;17.60;21.40;;;;;;20853;6804;117125;-73
2023/04/06 10:54:22;;;;;;;7.50;7.00;;;17.30;21.70;;;;;;20624;6804;306596;-72
2023/04/06 10:56:47;;;;;;;7.80;7.30;;;17.30;20.70;;;;;;20839;6804;117168;-74
2023/04/06 10:59:12;;;;;;;8.03;7.53;;;17.30;21.20;;;;;;20600;6804;276676;-75
2023/04/06 11:01:38;;;;;;;7.90;7.30;;;17.40;21.30;;;;;;20833;6804;116989;-74
2023/04/06 11:04:03;;;;;;;7.22;6.72;;;17.50;21.50;;;;;;20844;6804;117426;-73
2023/04/06 11:06:30;;;;;;;7.87;7.27;;;17.40;21.70;;;;;;20626;6804;277089;-72
2023/04/06 11:08:59;;;;;;;7.07;6.50;;;17.50;21.70;;;;;;20823;6804;117642;-76
2023/04/06 11:11:26;;;;;;;7.30;6.70;;;17.50;21.70;;;;;;20853;6804;117994;-78
2023/04/06 11:13:50;;;;;;;7.10;6.70;;;17.50;22.10;;;;;;20635;6804;315750;-76
2023/04/06 11:16:17;;;;;;;6.20;5.63;;;17.70;21.50;;;;;;20634;6804;306329;-75
2023/04/06 11:18:51;;;;;;;6.10;5.60;;;17.90;19.50;;;;;;20823;6804;117556;-74
2023/04/06 11:21:17;;;;;;;5.90;5.50;;;17.90;19.50;;;;;;20850;6804;118321;-74
2023/04/06 11:23:44;;;;;;;5.50;5.10;;;17.70;19.80;;;;;;20847;6804;118318;-76
2023/04/06 11:26:10;;;;;;;5.17;4.87;;;17.50;19.70;;;;;;20637;6804;280983;-75
2023/04/06 11:28:36;;;;;;;5.85;5.45;;;17.50;19.70;;;;;;20594;6804;340105;-75
2023/04/06 11:31:02;;;;;;;4.07;3.80;;;17.70;19.10;;;;;;20804;6804;117601;-76
2023/04/06 11:33:27;;;;;;;5.27;4.87;;;17.80;19.40;;;;;;20635;6804;276978;-75
2023/04/06 11:35:53;;;;;;;5.03;4.70;;;17.90;18.60;;;;;;20632;6804;306439;-77
2023/04/06 11:38:19;;;;;;;4.32;4.12;;;18.10;18.60;;;;;;20602;6804;335012;-78
2023/04/06 11:40:47;;;;;;;3.60;3.40;;;18.20;17.40;;;;;;20812;6804;119582;-76
2023/04/06 11:43:13;;;;;;;3.60;3.40;;;18.10;18.10;;;;;;20610;6802;310085;-77
2023/04/06 11:45:41;;;;;;;4.40;4.00;;;18.20;17.60;;;;;;20850;6803;116961;-75
2023/04/06 11:48:07;;;;;;;4.27;4.07;;;18.20;17.80;;;;;;20841;6803;117536;-76
2023/04/06 11:50:36;;;;;;;4.70;4.40;;;18.00;18.30;;;;;;20786;6803;117150;-76
2023/04/06 11:53:01;;;;;;;5.00;4.70;;;17.80;18.80;;;;;;20601;6803;306354;-76
2023/04/06 11:55:27;;;;;;;4.30;3.90;;;17.90;17.40;;;;;;20832;6803;117333;-75
2023/04/06 11:57:57;;;;;;;4.12;3.92;;;17.80;17.80;;;;;;20841;6803;117107;-77
2023/04/06 12:00:23;;;;;;;4.53;4.23;;;17.60;18.60;;;;;;20841;6803;116971;-78
2023/04/06 12:02:48;;;;;;;4.80;4.50;;;17.40;18.50;;;;;;20626;6804;306052;-77
2023/04/06 12:05:14;;;;;;;4.57;4.20;;;17.40;17.50;;;;;;20613;6804;306090;-79
2023/04/06 12:07:40;;;;;;;4.23;4.03;;;17.60;17.50;;;;;;20850;6804;117163;-77
2023/04/06 12:10:07;;;;;;;4.70;4.33;;;17.60;18.50;;;;;;20644;6804;277382;-75
2023/04/06 12:12:33;;;;;;;4.22;4.03;;;17.70;18.40;;;;;;20632;6804;278220;-74
2023/04/06 12:15:19;;;;;;;3.70;3.50;;;18.00;18.00;;;;;;20589;6804;306458;-75
2023/04/06 12:17:54;;;;;;;3.70;3.40;;;18.20;17.40;;;;;;20953;6704;117326;-74
2023/04/06 12:20:30;;;;;;;4.20;3.87;;;18.10;17.50;;;;;;20885;6742;117014;-81
2023/04/06 12:23:06;;;;;;;4.27;3.97;;;17.90;17.70;;;;;;20762;6761;117032;-76
2023/04/06 12:25:41;;;;;;;3.65;3.45;;;17.60;17.90;;;;;;20755;6709;304969;-75
2023/04/06 12:31:53;;;;;;;4.10;3.90;;;17.70;17.60;;;;;;20871;6727;116892;-78
2023/04/06 12:34:29;;;;;;;4.22;3.95;;;17.40;17.90;;;;;;20591;6742;307820;-77
2023/04/06 12:37:05;;;;;;;4.30;4.10;;;17.50;17.20;;;;;;20894;6732;122740;-74